Time;durP1;ratioP1;P1;durP2;ratioP2;P2;SDS_P1;SDS_P2;PMS_P1;PMS_P2;Temp;Humidity;BMP_temperature;BMP_pressure;BME280_temperature;BME280_humidity;BME280_pressure;Samples;Min_cycle;Max_cycle;Signal;HPM_P1;HPM_P2
2022/06/10 00:02:20;;;;;;;12.77;5.15;;;;;;;;;;5320241;27;20142;-85
2022/06/10 00:04:51;;;;;;;13.35;5.50;;;;;;;;;;5313785;27;20023;-86
2022/06/10 00:07:24;;;;;;;12.13;5.38;;;;;;;;;;5310749;27;20428;-85
2022/06/10 00:09:57;;;;;;;13.73;5.32;;;;;;;;;;5314378;27;20023;-84
2022/06/10 00:12:29;;;;;;;14.48;6.07;;;;;;;;;;5313400;27;20028;-85
2022/06/10 00:15:00;;;;;;;10.73;5.28;;;;;;;;;;5313654;27;20035;-84
2022/06/10 00:17:32;;;;;;;14.10;5.40;;;;;;;;;;5293768;27;20031;-85
2022/06/10 00:20:04;;;;;;;13.13;5.47;;;;;;;;;;5293046;27;20025;-84
2022/06/10 00:22:38;;;;;;;16.75;5.50;;;;;;;;;;5318336;27;20024;-84
2022/06/10 00:25:11;;;;;;;13.52;5.85;;;;;;;;;;5316184;27;21072;-85
2022/06/10 00:27:42;;;;;;;11.45;5.15;;;;;;;;;;5298041;27;20127;-84
2022/06/10 00:30:14;;;;;;;12.65;5.65;;;;;;;;;;5312591;27;20121;-86
2022/06/10 00:32:45;;;;;;;10.40;4.40;;;;;;;;;;5309761;27;20543;-85
2022/06/10 00:35:17;;;;;;;12.37;4.63;;;;;;;;;;5310845;27;20032;-85
2022/06/10 00:37:48;;;;;;;9.30;4.80;;;;;;;;;;5313452;27;20391;-86
2022/06/10 00:40:23;;;;;;;10.93;4.77;;;;;;;;;;5311438;27;20063;-85
2022/06/10 00:42:56;;;;;;;10.73;4.97;;;;;;;;;;5311150;27;20267;-86
2022/06/10 00:45:47;;;;;;;8.55;3.97;;;;;;;;;;5315224;27;20641;-86
2022/06/10 00:48:33;;;;;;;11.02;4.50;;;;;;;;;;5314213;27;20032;-85
2022/06/10 00:51:13;;;;;;;10.82;4.22;;;;;;;;;;5295427;27;20062;-85
2022/06/10 00:53:45;;;;;;;11.93;4.10;;;;;;;;;;5311903;27;20487;-85
2022/06/10 00:56:18;;;;;;;11.85;4.00;;;;;;;;;;5314104;27;20028;-85
2022/06/10 00:58:54;;;;;;;10.02;3.38;;;;;;;;;;5294232;27;20036;-86
2022/06/10 01:01:26;;;;;;;11.90;4.25;;;;;;;;;;5336040;27;20012;-86
2022/06/10 01:03:58;;;;;;;9.70;3.88;;;;;;;;;;5340165;27;20043;-85
2022/06/10 01:06:29;;;;;;;9.25;3.40;;;;;;;;;;5346122;27;20060;-86
2022/06/10 01:09:02;;;;;;;14.32;3.95;;;;;;;;;;5316656;27;20112;-85
2022/06/10 01:11:52;;;;;;;8.95;3.10;;;;;;;;;;5310337;27;20032;-86
2022/06/10 01:14:26;;;;;;;14.27;3.90;;;;;;;;;;5338264;27;20075;-85
2022/06/10 01:17:07;;;;;;;11.23;3.55;;;;;;;;;;5325163;27;20381;-85
2022/06/10 01:19:41;;;;;;;8.63;3.20;;;;;;;;;;5329043;27;20019;-86
2022/06/10 01:22:18;;;;;;;9.98;3.20;;;;;;;;;;5326228;27;20051;-86
2022/06/10 01:25:06;;;;;;;11.73;3.22;;;;;;;;;;5301960;27;20052;-85
2022/06/10 01:27:56;;;;;;;12.38;3.40;;;;;;;;;;5314808;27;20024;-85
2022/06/10 01:30:39;;;;;;;11.57;3.10;;;;;;;;;;5329076;27;20028;-86
2022/06/10 01:33:16;;;;;;;14.60;3.08;;;;;;;;;;5312372;27;20123;-85
2022/06/10 01:36:03;;;;;;;10.10;3.17;;;;;;;;;;5301030;27;20028;-85
2022/06/10 01:38:46;;;;;;;7.65;2.90;;;;;;;;;;5299307;27;20063;-86
2022/06/10 01:41:24;;;;;;;10.40;2.58;;;;;;;;;;5314103;27;20039;-85
2022/06/10 01:44:04;;;;;;;10.02;2.78;;;;;;;;;;5310524;27;20023;-86
2022/06/10 01:46:37;;;;;;;7.45;2.45;;;;;;;;;;5321281;27;20083;-85
2022/06/10 01:49:19;;;;;;;9.25;3.38;;;;;;;;;;5321961;27;20035;-86
2022/06/10 01:51:53;;;;;;;8.82;3.20;;;;;;;;;;5299025;27;20169;-86
2022/06/10 01:54:31;;;;;;;7.55;2.70;;;;;;;;;;5314902;27;20043;-85
2022/06/10 01:57:22;;;;;;;9.80;2.47;;;;;;;;;;5301762;27;20496;-85
2022/06/10 02:00:00;;;;;;;11.90;2.92;;;;;;;;;;5316165;27;20603;-86
2022/06/10 02:02:34;;;;;;;8.85;4.00;;;;;;;;;;5296707;27;20028;-86
2022/06/10 02:05:09;;;;;;;8.68;2.60;;;;;;;;;;5325371;27;20032;-86
2022/06/10 02:07:43;;;;;;;9.25;3.10;;;;;;;;;;5290860;28;20060;-86
2022/06/10 02:10:24;;;;;;;11.52;3.30;;;;;;;;;;5294812;28;20442;-86
2022/06/10 02:12:59;;;;;;;9.65;2.55;;;;;;;;;;5294086;28;20044;-85
2022/06/10 02:15:36;;;;;;;8.13;2.95;;;;;;;;;;5291711;28;20425;-85
2022/06/10 02:18:14;;;;;;;11.48;2.85;;;;;;;;;;5294475;28;20039;-85
2022/06/10 02:20:51;;;;;;;9.13;2.80;;;;;;;;;;5292210;28;20044;-85
2022/06/10 02:23:28;;;;;;;10.80;2.83;;;;;;;;;;5292299;28;20163;-85
2022/06/10 02:26:02;;;;;;;8.27;2.92;;;;;;;;;;5291829;28;20489;-85
2022/06/10 02:28:36;;;;;;;7.32;2.72;;;;;;;;;;5295683;28;20071;-85
2022/06/10 02:31:11;;;;;;;10.45;2.90;;;;;;;;;;5298664;28;20457;-85
2022/06/10 02:33:43;;;;;;;11.57;3.15;;;;;;;;;;5295741;28;20035;-85
2022/06/10 02:36:17;;;;;;;8.27;2.53;;;;;;;;;;5293721;28;20479;-85
2022/06/10 02:38:55;;;;;;;9.98;2.50;;;;;;;;;;5291715;28;20044;-85
2022/06/10 02:41:45;;;;;;;12.27;2.90;;;;;;;;;;5286419;28;20029;-85
2022/06/10 02:44:22;;;;;;;9.05;3.40;;;;;;;;;;5294415;28;20086;-85
2022/06/10 02:46:53;;;;;;;9.45;2.78;;;;;;;;;;5318243;27;20399;-85
2022/06/10 02:49:28;;;;;;;9.05;2.90;;;;;;;;;;5294873;28;20029;-85
2022/06/10 02:51:59;;;;;;;9.00;2.35;;;;;;;;;;5294582;28;20066;-85
2022/06/10 02:54:33;;;;;;;10.95;2.83;;;;;;;;;;5290420;27;20041;-85
2022/06/10 02:57:14;;;;;;;6.35;2.25;;;;;;;;;;5302978;28;20028;-85
2022/06/10 03:02:48;;;;;;;12.35;3.67;;;;;;;;;;5300626;28;20021;-85
2022/06/10 03:05:19;;;;;;;11.00;2.55;;;;;;;;;;5332611;27;20025;-85
2022/06/10 03:07:50;;;;;;;14.23;3.20;;;;;;;;;;5320168;27;20381;-85
2022/06/10 03:10:29;;;;;;;10.27;2.85;;;;;;;;;;5319274;27;20028;-85
2022/06/10 03:13:03;;;;;;;7.78;2.42;;;;;;;;;;5320392;27;20032;-85
2022/06/10 03:15:46;;;;;;;9.07;2.63;;;;;;;;;;5323957;27;20111;-85
2022/06/10 03:18:29;;;;;;;9.13;2.50;;;;;;;;;;5323007;27;20035;-85
2022/06/10 03:21:10;;;;;;;8.15;2.53;;;;;;;;;;5306810;27;20048;-85
2022/06/10 03:24:03;;;;;;;10.25;2.65;;;;;;;;;;5312408;27;20039;-85
2022/06/10 03:26:34;;;;;;;14.98;2.95;;;;;;;;;;5323989;27;20035;-85
2022/06/10 03:29:11;;;;;;;12.00;2.83;;;;;;;;;;5320374;27;20024;-86
2022/06/10 03:31:42;;;;;;;;;;;;;;;;;;5317825;27;20123;-86
2022/06/10 03:34:33;;;;;;;6.70;2.22;;;;;;;;;;5331007;27;20066;-86
2022/06/10 03:37:06;;;;;;;7.00;2.20;;;;;;;;;;5303171;27;20483;-86
2022/06/10 03:39:39;;;;;;;11.40;2.85;;;;;;;;;;5315667;27;20028;-86
2022/06/10 03:42:20;;;;;;;7.07;2.47;;;;;;;;;;5322491;27;20047;-86
2022/06/10 03:44:53;;;;;;;9.98;2.72;;;;;;;;;;5296332;27;20477;-86
2022/06/10 03:47:27;;;;;;;8.90;2.10;;;;;;;;;;5303084;27;20044;-86
2022/06/10 03:50:02;;;;;;;12.68;2.83;;;;;;;;;;5320506;27;20038;-86
2022/06/10 03:52:34;;;;;;;10.02;2.80;;;;;;;;;;5294363;27;20067;-86
2022/06/10 03:55:07;;;;;;;10.02;2.75;;;;;;;;;;5293508;27;20043;-86
2022/06/10 03:57:41;;;;;;;9.55;2.90;;;;;;;;;;5331846;27;20488;-86
2022/06/10 04:00:14;;;;;;;9.45;2.90;;;;;;;;;;5324497;27;20104;-86
2022/06/10 04:02:45;;;;;;;14.57;3.38;;;;;;;;;;5319788;27;20059;-86
2022/06/10 04:05:17;;;;;;;7.50;2.88;;;;;;;;;;5321603;27;20047;-85
2022/06/10 04:07:49;;;;;;;7.38;2.80;;;;;;;;;;5321406;27;20055;-85
2022/06/10 04:10:26;;;;;;;9.75;2.60;;;;;;;;;;5315511;27;20470;-85
2022/06/10 04:12:58;;;;;;;10.48;2.65;;;;;;;;;;5313368;27;20169;-85
2022/06/10 04:15:29;;;;;;;9.73;2.92;;;;;;;;;;5303507;27;20122;-86
2022/06/10 04:18:01;;;;;;;11.57;2.83;;;;;;;;;;5317910;27;20024;-85
2022/06/10 04:20:34;;;;;;;8.15;2.58;;;;;;;;;;5312978;27;20246;-86
2022/06/10 04:23:06;;;;;;;9.98;2.60;;;;;;;;;;5314967;27;20087;-86
2022/06/10 04:25:38;;;;;;;12.38;3.05;;;;;;;;;;5317253;27;20035;-86
2022/06/10 04:28:10;;;;;;;13.65;2.80;;;;;;;;;;5297083;27;20491;-85
2022/06/10 04:30:46;;;;;;;12.68;2.95;;;;;;;;;;5317977;27;20043;-86
2022/06/10 04:33:18;;;;;;;7.82;2.22;;;;;;;;;;5316801;27;20459;-85
2022/06/10 04:35:50;;;;;;;7.00;2.20;;;;;;;;;;5297392;27;20081;-86
2022/06/10 04:38:22;;;;;;;14.10;2.58;;;;;;;;;;5313487;27;20043;-85
2022/06/10 04:40:55;;;;;;;9.70;2.38;;;;;;;;;;5317465;27;20420;-85
2022/06/10 04:43:27;;;;;;;8.38;2.30;;;;;;;;;;5316368;27;20043;-85
2022/06/10 04:45:58;;;;;;;9.65;2.00;;;;;;;;;;5325130;27;20055;-86
2022/06/10 04:48:30;;;;;;;13.10;2.55;;;;;;;;;;5302553;28;20032;-85
2022/06/10 04:51:01;;;;;;;7.68;2.33;;;;;;;;;;5319470;27;20441;-85
2022/06/10 04:53:33;;;;;;;6.82;2.15;;;;;;;;;;5310972;27;20039;-86
2022/06/10 04:56:08;;;;;;;9.90;3.22;;;;;;;;;;5286092;28;20074;-86
2022/06/10 04:58:43;;;;;;;10.07;2.33;;;;;;;;;;5331430;27;20031;-86
2022/06/10 05:01:15;;;;;;;11.27;2.67;;;;;;;;;;5305956;28;20576;-86
2022/06/10 05:03:46;;;;;;;11.85;2.40;;;;;;;;;;5306376;28;20111;-86
2022/06/10 05:06:21;;;;;;;10.20;3.17;;;;;;;;;;5292414;28;20094;-86
2022/06/10 05:08:57;;;;;;;13.90;3.28;;;;;;;;;;5303919;27;20032;-86
2022/06/10 05:11:28;;;;;;;;;;;;;;;;;;5307826;28;20036;-86
2022/06/10 05:14:00;;;;;;;13.53;2.97;;;;;;;;;;5290105;28;20315;-86
2022/06/10 05:16:50;;;;;;;8.48;2.83;;;;;;;;;;5314030;27;20037;-86
2022/06/10 05:19:30;;;;;;;10.07;2.20;;;;;;;;;;5318475;27;20131;-86
2022/06/10 05:22:08;;;;;;;11.80;3.20;;;;;;;;;;5302237;27;20491;-87
2022/06/10 05:24:42;;;;;;;8.38;2.92;;;;;;;;;;5322470;27;20034;-87
2022/06/10 05:27:13;;;;;;;10.40;2.83;;;;;;;;;;5305776;27;20456;-87
2022/06/10 05:29:47;;;;;;;9.93;2.70;;;;;;;;;;5321602;27;20016;-87
2022/06/10 05:32:19;;;;;;;9.88;2.97;;;;;;;;;;5301617;27;20162;-87
2022/06/10 05:34:57;;;;;;;15.15;2.63;;;;;;;;;;5317891;27;20451;-87
2022/06/10 05:37:28;;;;;;;11.55;3.30;;;;;;;;;;5313508;27;20063;-87
2022/06/10 05:40:08;;;;;;;11.70;2.72;;;;;;;;;;5301136;27;20054;-87
2022/06/10 05:42:40;;;;;;;10.00;3.00;;;;;;;;;;5325361;27;20046;-87
2022/06/10 05:45:14;;;;;;;10.27;2.85;;;;;;;;;;5327335;27;20016;-86
2022/06/10 05:47:49;;;;;;;13.10;2.88;;;;;;;;;;5321247;28;20401;-86
2022/06/10 05:50:24;;;;;;;9.35;2.40;;;;;;;;;;5324737;27;20085;-87
2022/06/10 05:52:58;;;;;;;8.98;2.55;;;;;;;;;;5323619;27;20441;-87
2022/06/10 05:55:31;;;;;;;16.63;2.55;;;;;;;;;;5324901;27;20096;-87
2022/06/10 05:58:02;;;;;;;6.88;2.70;;;;;;;;;;5324776;27;20540;-87
2022/06/10 06:00:34;;;;;;;12.05;2.22;;;;;;;;;;5324198;27;20095;-86
2022/06/10 06:03:08;;;;;;;9.77;2.65;;;;;;;;;;5306013;27;20028;-86
2022/06/10 06:05:39;;;;;;;9.90;1.85;;;;;;;;;;5305295;28;20099;-86
2022/06/10 06:08:13;;;;;;;9.02;2.50;;;;;;;;;;5295831;28;20140;-86
2022/06/10 06:10:44;;;;;;;9.25;2.42;;;;;;;;;;5290202;28;20115;-86
2022/06/10 06:13:18;;;;;;;8.98;2.40;;;;;;;;;;5301814;28;20203;-86
2022/06/10 06:15:50;;;;;;;6.43;2.17;;;;;;;;;;5281507;28;20017;-87
2022/06/10 06:18:30;;;;;;;8.93;2.35;;;;;;;;;;5292626;28;20493;-86
2022/06/10 06:21:09;;;;;;;9.95;2.00;;;;;;;;;;5304699;28;20120;-86
2022/06/10 06:23:41;;;;;;;6.32;2.05;;;;;;;;;;5316120;28;20028;-86
2022/06/10 06:26:15;;;;;;;10.85;2.25;;;;;;;;;;5307956;28;20500;-86
2022/06/10 06:28:47;;;;;;;9.57;2.60;;;;;;;;;;5302312;28;20029;-86
2022/06/10 06:31:18;;;;;;;8.63;2.05;;;;;;;;;;5308155;28;20090;-85
2022/06/10 06:33:50;;;;;;;9.02;2.20;;;;;;;;;;5293237;28;20044;-86
2022/06/10 06:36:23;;;;;;;6.45;1.77;;;;;;;;;;5298147;28;20034;-87
2022/06/10 06:38:57;;;;;;;7.63;2.10;;;;;;;;;;5299967;28;20032;-86
2022/06/10 06:41:41;;;;;;;;;;;;;;;;;;;;;
2022/06/10 06:44:13;;;;;;;9.23;2.35;;;;;;;;;;5293191;28;40143;-86
2022/06/10 06:46:47;;;;;;;8.30;2.35;;;;;;;;;;5297648;28;20031;-86
2022/06/10 06:49:21;;;;;;;7.68;2.50;;;;;;;;;;5305402;28;20060;-86
2022/06/10 06:51:55;;;;;;;5.18;1.80;;;;;;;;;;5305425;28;20377;-86
2022/06/10 06:54:28;;;;;;;6.93;2.15;;;;;;;;;;5303766;28;20132;-86
2022/06/10 06:57:00;;;;;;;7.70;1.70;;;;;;;;;;5300150;28;20025;-85
2022/06/10 06:59:34;;;;;;;12.30;2.13;;;;;;;;;;5300554;28;20094;-86
2022/06/10 07:02:05;;;;;;;8.35;2.03;;;;;;;;;;5300703;28;20119;-87
2022/06/10 07:04:43;;;;;;;6.43;2.25;;;;;;;;;;5307640;28;20462;-88
2022/06/10 07:07:38;;;;;;;7.38;2.20;;;;;;;;;;5314312;27;20504;-87
2022/06/10 07:13:38;;;;;;;10.32;2.13;;;;;;;;;;5317632;27;20043;-87
2022/06/10 07:16:23;;;;;;;8.57;2.00;;;;;;;;;;5323948;27;20390;-86
2022/06/10 07:19:21;;;;;;;9.43;1.92;;;;;;;;;;5307972;28;20028;-87
2022/06/10 07:25:29;;;;;;;;;;;;;;;;;;;;;
2022/06/10 07:31:21;;;;;;;6.63;1.75;;;;;;;;;;5295593;28;20342;-87
2022/06/10 07:33:54;;;;;;;;;;;;;;;;;;5287957;28;20058;-86
2022/06/10 07:43:25;;;;;;;7.40;1.60;;;;;;;;;;5241994;28;20061;-87
2022/06/10 07:46:02;;;;;;;8.85;1.80;;;;;;;;;;5241479;27;20118;-86
2022/06/10 07:48:59;;;;;;;6.40;1.67;;;;;;;;;;5297103;28;20483;-86
2022/06/10 07:52:05;;;;;;;4.07;1.35;;;;;;;;;;5217351;28;20745;-87
2022/06/10 07:58:13;;;;;;;8.75;2.00;;;;;;;;;;5329140;27;20040;-86
2022/06/10 08:01:26;;;;;;;;;;;;;;;;;;;;;
2022/06/10 08:04:33;;;;;;;;;;;;;;;;;;;;;
2022/06/10 08:07:05;;;;;;;2.80;1.30;;;;;;;;;;5317462;27;41307;-87
2022/06/10 08:10:09;;;;;;;;;;;;;;;;;;;;;
2022/06/10 08:13:01;;;;;;;7.22;1.42;;;;;;;;;;5305222;27;40382;-87
2022/06/10 08:25:09;;;;;;;8.20;1.85;;;;;;;;;;5312495;28;20040;-87
2022/06/10 08:27:55;;;;;;;5.70;2.08;;;;;;;;;;5306382;28;20150;-87
2022/06/10 08:30:32;;;;;;;8.68;2.10;;;;;;;;;;5324015;27;20035;-87
2022/06/10 08:33:17;;;;;;;10.02;2.88;;;;;;;;;;5307748;28;20147;-87
2022/06/10 08:43:09;;;;;;;;;;;;;;;;;;;;;
2022/06/10 08:46:31;;;;;;;12.43;2.70;;;;;;;;;;5301059;27;40187;-88
2022/06/10 08:49:19;;;;;;;9.45;2.13;;;;;;;;;;5235485;28;20073;-88
2022/06/10 08:55:25;;;;;;;11.18;2.75;;;;;;;;;;5217457;28;20100;-87
2022/06/10 08:58:51;;;;;;;;;;;;;;;;;;;;;
2022/06/10 09:02:01;;;;;;;;;;;;;;;;;;;;;
2022/06/10 09:04:35;;;;;;;12.00;2.45;;;;;;;;;;5256646;28;20520;-87
2022/06/10 09:07:37;;;;;;;;;;;;;;;;;;;;;
2022/06/10 09:10:37;;;;;;;9.32;3.13;;;;;;;;;;5220194;28;40154;-88
2022/06/10 09:13:48;;;;;;;;;;;;;;;;;;;;;
2022/06/10 09:20:17;;;;;;;;;;;;;;;;;;;;;
2022/06/10 09:23:14;;;;;;;13.60;2.58;;;;;;;;;;5241895;28;39766;-88
2022/06/10 09:26:10;;;;;;;12.25;2.33;;;;;;;;;;5277620;28;20040;-88
2022/06/10 09:29:08;;;;;;;7.68;2.58;;;;;;;;;;5294365;28;20025;-88
2022/06/10 09:32:21;;;;;;;7.78;2.05;;;;;;;;;;5282250;28;20412;-88
2022/06/10 09:38:23;;;;;;;10.90;2.33;;;;;;;;;;5267828;28;20044;-89
2022/06/10 09:41:14;;;;;;;10.93;2.53;;;;;;;;;;5294645;28;20488;-88
2022/06/10 09:47:40;;;;;;;;;;;;;;;;;;;;;
2022/06/10 09:50:48;;;;;;;11.05;2.70;;;;;;;;;;5250857;28;40362;-89
2022/06/10 10:13:21;;;;;;;;;;;;;;;;;;;;;
2022/06/10 10:22:48;;;;;;;;;;;;;;;;;;;;;
2022/06/10 10:32:23;;;;;;;;;;;;;;;;;;;;;
2022/06/10 10:38:45;;;;;;;12.25;2.70;;;;;;;;;;5198543;28;20045;-90
2022/06/10 10:48:04;;;;;;;9.15;2.70;;;;;;;;;;5190649;28;20036;-90
2022/06/10 10:51:13;;;;;;;;;;;;;;;;;;;;;
2022/06/10 10:54:17;;;;;;;5.90;2.15;;;;;;;;;;5301599;28;39912;-90
2022/06/10 10:57:31;;;;;;;;;;;;;;;;;;;;;
2022/06/10 11:00:35;;;;;;;;;;;;;;;;;;;;;
2022/06/10 11:03:38;;;;;;;11.93;2.45;;;;;;;;;;5237663;28;39894;-90
2022/06/10 11:13:26;;;;;;;11.63;3.45;;;;;;;;;;5129209;29;20076;-90
2022/06/10 11:29:29;;;;;;;;;;;;;;;;;;;;;
2022/06/10 11:36:10;;;;;;;12.00;2.80;;;;;;;;;;5174974;28;20040;-89
2022/06/10 11:46:18;;;;;;;;;;;;;;;;;;;;;
2022/06/10 11:55:36;;;;;;;10.50;2.40;;;;;;;;;;5139296;28;20032;-89
2022/06/10 12:12:43;;;;;;;;;;;;;;;;;;;;;
2022/06/10 12:22:13;;;;;;;7.10;2.13;;;;;;;;;;5179803;28;20032;-89
2022/06/10 12:28:31;;;;;;;6.72;1.85;;;;;;;;;;5169419;28;20039;-88
2022/06/10 12:34:52;;;;;;;;;;;;;;;;;;;;;
2022/06/10 12:38:09;;;;;;;;;;;;;;;;;;;;;
2022/06/10 12:47:21;;;;;;;;;;;;;;;;;;;;;
2022/06/10 12:50:30;;;;;;;7.53;2.35;;;;;;;;;;5217289;28;39912;-89
2022/06/10 13:00:03;;;;;;;8.77;2.10;;;;;;;;;;5195133;28;20028;-89
2022/06/10 13:19:27;;;;;;;;;;;;;;;;;;;;;
2022/06/10 13:22:28;;;;;;;;;;;;;;;;;;;;;
2022/06/10 13:25:31;;;;;;;11.40;2.70;;;;;;;;;;5232133;28;39401;-87
2022/06/10 13:28:22;;;;;;;;;;;;;;;;;;;;;
2022/06/10 13:34:44;;;;;;;11.30;3.20;;;;;;;;;;5213630;28;20149;-88
2022/06/10 13:37:49;;;;;;;9.48;2.08;;;;;;;;;;5232084;28;20128;-89
2022/06/10 13:44:02;;;;;;;7.75;2.42;;;;;;;;;;5220581;28;20023;-88
2022/06/10 14:03:01;;;;;;;10.63;2.75;;;;;;;;;;5161699;28;20044;-89
2022/06/10 14:35:31;;;;;;;;;;;;;;;;;;;;;
2022/06/10 14:42:15;;;;;;;;;;;;;;;;;;;;;
2022/06/10 14:48:43;;;;;;;11.82;3.10;;;;;;;;;;5100004;29;20160;-90
2022/06/10 14:51:24;;;;;;;9.02;3.10;;;;;;;;;;5103440;29;20048;-89
2022/06/10 14:54:25;;;;;;;;;;;;;;;;;;;;;
2022/06/10 15:00:32;;;;;;;15.65;3.20;;;;;;;;;;5125173;28;20033;-90
2022/06/10 15:03:16;;;;;;;11.60;3.53;;;;;;;;;;5186031;28;20471;-89
2022/06/10 15:16:09;;;;;;;6.45;3.05;;;;;;;;;;5098027;29;20106;-90
2022/06/10 15:22:12;;;;;;;;;;;;;;;;;;;;;
2022/06/10 15:40:42;;;;;;;4.15;1.50;;;;;;;;;;5209468;28;20030;-91
2022/06/10 15:44:25;;;;;;;6.30;2.13;;;;;;;;;;5270831;28;20128;-90
2022/06/10 15:47:40;;;;;;;7.43;2.00;;;;;;;;;;5196392;28;20491;-91
2022/06/10 16:16:54;;;;;;;;;;;;;;;;;;;;;
2022/06/10 16:20:18;;;;;;;9.35;2.10;;;;;;;;;;5201011;28;20036;-89
2022/06/10 16:23:24;;;;;;;7.18;1.80;;;;;;;;;;5141317;29;20225;-90
2022/06/10 16:33:04;;;;;;;;;;;;;;;;;;;;;
2022/06/10 16:36:02;;;;;;;12.35;2.22;;;;;;;;;;5132567;28;40177;-90
2022/06/10 16:45:04;;;;;;;12.65;2.35;;;;;;;;;;5279796;28;20144;-90
2022/06/10 16:48:17;;;;;;;10.00;2.50;;;;;;;;;;5284965;28;20095;-90
2022/06/10 17:01:25;;;;;;;12.20;2.70;;;;;;;;;;5219023;28;20217;-89
2022/06/10 17:04:10;;;;;;;5.93;2.03;;;;;;;;;;5282819;28;20060;-90
2022/06/10 17:14:25;;;;;;;;;;;;;;;;;;;;;
2022/06/10 17:20:52;;;;;;;;;;;;;;;;;;;;;
2022/06/10 17:23:55;;;;;;;8.07;1.90;;;;;;;;;;5235191;28;20133;-92
2022/06/10 17:33:49;;;;;;;;;;;;;;;;;;;;;
2022/06/10 17:43:21;;;;;;;7.45;2.20;;;;;;;;;;5170845;28;20142;-91
2022/06/10 17:46:24;;;;;;;;;;;;;;;;;;;;;
2022/06/10 17:49:45;;;;;;;8.00;2.38;;;;;;;;;;5188804;28;41202;-90
2022/06/10 17:56:11;;;;;;;;;;;;;;;;;;;;;
2022/06/10 18:09:16;;;;;;;9.45;2.40;;;;;;;;;;5156194;29;20048;-96
2022/06/10 18:15:44;;;;;;;;;;;;;;;;;;;;;
2022/06/10 18:34:43;;;;;;;;;;;;;;;;;;;;;
2022/06/10 18:47:37;;;;;;;;;;;;;;;;;;;;;
2022/06/10 18:54:08;;;;;;;11.98;4.32;;;;;;;;;;5218875;28;20044;-92
2022/06/10 19:07:33;;;;;;;11.80;4.20;;;;;;;;;;5305335;28;20033;-91
2022/06/10 19:16:20;;;;;;;13.82;4.10;;;;;;;;;;5313597;28;20045;-91
2022/06/10 19:22:19;;;;;;;11.75;4.80;;;;;;;;;;5286000;28;20049;-91
2022/06/10 19:35:50;;;;;;;;;;;;;;;;;;;;;
2022/06/10 19:41:45;;;;;;;14.10;5.18;;;;;;;;;;5254894;28;20049;-91
2022/06/10 19:47:32;;;;;;;11.95;4.80;;;;;;;;;;5254266;28;20038;-92
2022/06/10 20:06:27;;;;;;;14.07;5.28;;;;;;;;;;5225777;28;20026;-91
2022/06/10 20:09:19;;;;;;;11.93;4.45;;;;;;;;;;5199889;28;20046;-91
2022/06/10 20:16:01;;;;;;;9.95;4.25;;;;;;;;;;5164088;28;20184;-91
2022/06/10 20:19:21;;;;;;;;;;;;;;;;;;;;;
2022/06/10 20:28:25;;;;;;;8.82;3.95;;;;;;;;;;5119925;29;20059;-91
2022/06/10 20:31:25;;;;;;;;;;;;;;;;;;;;;
2022/06/10 20:34:36;;;;;;;12.05;3.80;;;;;;;;;;5117626;29;40593;-91
2022/06/10 20:37:41;;;;;;;10.93;4.20;;;;;;;;;;5059788;29;20042;-90
2022/06/10 20:47:28;;;;;;;;;;;;;;;;;;;;;
2022/06/10 20:51:05;;;;;;;9.65;4.45;;;;;;;;;;5253713;28;40429;-90
2022/06/10 20:54:02;;;;;;;10.77;5.30;;;;;;;;;;5168495;28;20024;-91
2022/06/10 20:57:02;;;;;;;10.23;4.32;;;;;;;;;;5156081;28;20143;-91
2022/06/10 20:59:55;;;;;;;11.02;5.70;;;;;;;;;;5185627;28;20047;-90
2022/06/10 21:03:21;;;;;;;;;;;;;;;;;;;;;
2022/06/10 21:19:14;;;;;;;13.60;6.57;;;;;;;;;;5259971;28;20167;-91
2022/06/10 21:21:52;;;;;;;13.18;6.82;;;;;;;;;;5237604;28;20033;-91
2022/06/10 21:25:05;;;;;;;15.85;7.40;;;;;;;;;;5236924;28;20169;-91
2022/06/10 21:27:58;;;;;;;12.27;6.35;;;;;;;;;;5208368;28;20133;-90
2022/06/10 21:30:48;;;;;;;9.73;6.75;;;;;;;;;;5214309;28;20046;-91
2022/06/10 21:39:50;;;;;;;12.07;7.38;;;;;;;;;;5265972;28;20030;-90
2022/06/10 21:45:53;;;;;;;11.90;7.22;;;;;;;;;;5262758;28;20045;-90
2022/06/10 21:55:26;;;;;;;11.32;7.43;;;;;;;;;;5333489;27;20060;-91
2022/06/10 21:58:30;;;;;;;17.33;8.40;;;;;;;;;;5310773;27;20388;-90
2022/06/10 22:01:23;;;;;;;14.50;7.90;;;;;;;;;;5297037;27;20105;-91
2022/06/10 22:04:18;;;;;;;14.05;8.02;;;;;;;;;;5320345;27;20032;-90
2022/06/10 22:06:52;;;;;;;12.40;7.70;;;;;;;;;;5302335;27;20044;-90
2022/06/10 22:09:50;;;;;;;11.35;7.45;;;;;;;;;;5305589;28;20036;-90
2022/06/10 22:12:33;;;;;;;9.05;7.53;;;;;;;;;;5335258;27;20047;-90
2022/06/10 22:15:17;;;;;;;13.13;7.28;;;;;;;;;;5281460;28;20037;-91
2022/06/10 22:18:39;;;;;;;;;;;;;;;;;;;;;
2022/06/10 22:21:26;;;;;;;15.95;9.48;;;;;;;;;;5278957;28;20123;-90
2022/06/10 22:24:50;;;;;;;;;;;;;;;;;;;;;
2022/06/10 22:27:48;;;;;;;;;;;;;;;;;;;;;
2022/06/10 22:33:39;;;;;;;15.70;8.15;;;;;;;;;;5273035;27;20033;-91
2022/06/10 22:36:29;;;;;;;;;;;;;;;;;;;;;
2022/06/10 22:42:33;;;;;;;12.88;7.40;;;;;;;;;;5345034;27;20044;-91
2022/06/10 22:45:23;;;;;;;13.10;7.35;;;;;;;;;;5297428;28;20047;-90
2022/06/10 22:48:17;;;;;;;13.73;7.57;;;;;;;;;;5304170;28;20048;-90
2022/06/10 22:51:32;;;;;;;10.88;6.93;;;;;;;;;;5284404;28;20039;-91
2022/06/10 22:54:21;;;;;;;12.02;7.55;;;;;;;;;;5322913;27;20044;-91
2022/06/10 22:57:07;;;;;;;12.63;8.00;;;;;;;;;;5324064;27;20051;-91
2022/06/10 23:03:35;;;;;;;20.83;8.23;;;;;;;;;;5331762;27;20024;-90
2022/06/10 23:06:33;;;;;;;;;;;;;;;;;;;;;
2022/06/10 23:12:35;;;;;;;11.40;6.85;;;;;;;;;;5320172;27;20035;-90
2022/06/10 23:15:46;;;;;;;10.30;6.40;;;;;;;;;;5295467;28;20087;-90
2022/06/10 23:18:41;;;;;;;11.45;6.07;;;;;;;;;;5330567;27;20040;-90
2022/06/10 23:24:28;;;;;;;9.15;6.35;;;;;;;;;;5329825;27;20043;-90
2022/06/10 23:27:17;;;;;;;12.57;5.53;;;;;;;;;;5292592;28;20116;-89
2022/06/10 23:30:20;;;;;;;11.27;5.78;;;;;;;;;;5308311;28;20499;-90
2022/06/10 23:40:21;;;;;;;8.88;5.78;;;;;;;;;;5309403;27;20389;-90
2022/06/10 23:53:18;;;;;;;12.25;6.50;;;;;;;;;;5334291;27;20163;-90
